logo tempoitalia

Diretta Meteo Zhengzhou, Cinalunedì 31 agosto ore 13:00

Mappa
Sereno 34 °C Sereno 24 Ore: T.min 20 T.max 34
Ponente Nord/NOvest Km/h 14.4 Punto di rugiada: 12 °C Umidità: 26% Visibilità: 10 Km
Il sole sorge alle: 05:57 Il sole tramonta alle: 18:54
31 Agosto 2026 13:00 tempo osservato: Sereno Sereno 34 26 1011 vento: Nord N/NO 14.4
31 Agosto 2026 12:00 tempo osservato: Sereno Sereno 33 33 1012 vento: Nord NO 14.4
31 Agosto 2026 11:00 tempo osservato: Sereno Sereno 32 40 1012 vento: Nord NO 14.4
31 Agosto 2026 10:00 tempo osservato: Sereno Sereno 31 45 1012 vento: Nord NO 18
31 Agosto 2026 09:00 tempo osservato: Sereno Sereno 29 54 1011 vento: Nord NO 21.6
31 Agosto 2026 08:00 tempo osservato: Sereno Sereno 26 65 1011 vento: Nord O/NO 14.4
31 Agosto 2026 07:00 tempo osservato: Sereno Sereno 22 88 1011 vento: Nord N 7.2
31 Agosto 2026 06:00 tempo osservato: Sereno Sereno 20 100 1011 vento: Nord N 7.2
31 Agosto 2026 05:00 tempo osservato: Sereno Sereno 21 88 1010 vento: Nord N 7.2
31 Agosto 2026 04:00 tempo osservato: Sereno Sereno 20 100 1011 vento: Nord N 3.6
31 Agosto 2026 03:00 tempo osservato: Sereno Sereno 22 83 1010 vento: Nord N 3.6
31 Agosto 2026 02:00 tempo osservato: Sereno Sereno 20 100 1011 vento: Nord N 3.6
31 Agosto 2026 01:00 tempo osservato: Sereno Sereno 22 83 1011 vento: Nord N 3.6
31 Agosto 2026 00:00 tempo osservato: Sereno Sereno 22 88 1011 vento: Nord N 3.6
30 Agosto 2026 23:00 tempo osservato: Sereno Sereno 23 83 1011 vento: Nord N 3.6
30 Agosto 2026 22:00 tempo osservato: Sereno Sereno 23 78 1011 vento: Nord N 3.6
30 Agosto 2026 21:00 tempo osservato: Sereno Sereno 25 61 1011 vento: Nord N 3.6
30 Agosto 2026 20:00 tempo osservato: Sereno Sereno 25 61 1010 vento: Nord N 7.2
30 Agosto 2026 19:00 tempo osservato: Sereno Sereno 30 40 1010 vento: Nord NE 10.8
30 Agosto 2026 18:00 tempo osservato: Sereno Sereno 31 35 1009 vento: Nord E/NE 18
30 Agosto 2026 17:00 tempo osservato: Sereno Sereno 32 35 1009 vento: Nord NE 14.4
30 Agosto 2026 16:00 tempo osservato: Sereno Sereno 32 35 1009 vento: Nord NE 18
30 Agosto 2026 15:00 tempo osservato: Sereno Sereno 32 38 1010 vento: Nord NE 18
30 Agosto 2026 14:00 tempo osservato: Sereno Sereno 32 38 1010 vento: Nord NE 18